createdAt,value
2023-05-08T00:00:08.232Z,100804.63
2023-05-08T00:02:34.982Z,100797.66
2023-05-08T00:05:01.830Z,100806.81
2023-05-08T00:07:28.480Z,100800.69
2023-05-08T00:09:55.077Z,100800.81
2023-05-08T00:12:21.652Z,100794.94
2023-05-08T00:14:48.184Z,100794.94
2023-05-08T00:17:14.834Z,100799.47
2023-05-08T00:19:41.423Z,100802.16
2023-05-08T00:22:08.063Z,100805.72
2023-05-08T00:24:34.613Z,100802.28
2023-05-08T00:27:01.224Z,100794.69
2023-05-08T00:29:27.928Z,100800.81
2023-05-08T00:31:54.474Z,100804.34
2023-05-08T00:34:21.234Z,100810.03
2023-05-08T00:36:47.912Z,100810.38
2023-05-08T00:39:14.581Z,100811.25
2023-05-08T00:41:41.120Z,100808.56
2023-05-08T00:44:08.412Z,100813.28
2023-05-08T00:46:36.713Z,100807.44
2023-05-08T00:49:05.319Z,100815.81
2023-05-08T00:51:32.190Z,100811.50
2023-05-08T00:53:59.908Z,100819.28
2023-05-08T00:56:29.287Z,100819.28
2023-05-08T00:58:56.514Z,100825.75
2023-05-08T01:01:23.781Z,100819.13
2023-05-08T01:03:51.001Z,100822.28
2023-05-08T01:06:17.661Z,100822.50
2023-05-08T01:08:45.265Z,100827.22
2023-05-08T01:11:15.439Z,100823.81
2023-05-08T01:14:19.433Z,100833.94
2023-05-08T01:17:10.612Z,100842.09
2023-05-08T01:20:04.076Z,100845.50
2023-05-08T01:22:55.622Z,100846.56
2023-05-08T01:25:59.593Z,100854.53
2023-05-08T01:28:32.051Z,100854.06
2023-05-08T01:30:58.582Z,100857.88
2023-05-08T01:33:34.841Z,100853.25
2023-05-08T01:36:14.092Z,100853.91
2023-05-08T01:38:52.512Z,100859.16
2023-05-08T01:41:26.250Z,100853.69
2023-05-08T01:43:52.732Z,100856.38
2023-05-08T01:46:28.363Z,100857.31
2023-05-08T01:49:17.790Z,100862.69
2023-05-08T01:51:57.896Z,100855.91
2023-05-08T01:54:28.478Z,100864.81
2023-05-08T01:56:58.174Z,100859.44
2023-05-08T01:59:28.237Z,100863.34
2023-05-08T02:01:57.430Z,100861.94
2023-05-08T02:04:25.778Z,100859.06
2023-05-08T02:06:53.584Z,100863.91
2023-05-08T02:09:22.753Z,100865.00
2023-05-08T02:11:50.562Z,100871.56
2023-05-08T02:14:21.147Z,100866.19
2023-05-08T02:16:49.656Z,100868.09
2023-05-08T02:19:18.807Z,100870.06
2023-05-08T02:21:47.210Z,100870.78
2023-05-08T02:24:15.804Z,100882.50
2023-05-08T02:26:45.082Z,100880.78
2023-05-08T02:29:11.824Z,100890.63
2023-05-08T02:31:39.954Z,100880.03
2023-05-08T02:34:09.521Z,100881.22
2023-05-08T02:36:38.247Z,100879.50
2023-05-08T02:39:07.590Z,100880.69
2023-05-08T02:41:36.252Z,100871.91
2023-05-08T02:44:02.929Z,100868.78
2023-05-08T02:46:52.818Z,100871.47
2023-05-08T02:49:32.224Z,100878.22
2023-05-08T02:52:16.528Z,100879.22
2023-05-08T02:54:51.583Z,100884.44
2023-05-08T02:57:32.008Z,100883.69
2023-05-08T03:00:05.181Z,100885.50
2023-05-08T03:02:40.492Z,100886.47
2023-05-08T03:05:15.440Z,100888.31
2023-05-08T03:07:43.747Z,100889.59
2023-05-08T03:10:16.755Z,100886.06
2023-05-08T03:12:46.637Z,100894.09
2023-05-08T03:15:21.399Z,100889.59
2023-05-08T03:17:52.288Z,100896.25
2023-05-08T03:20:21.445Z,100894.53
2023-05-08T03:22:49.441Z,100892.06
2023-05-08T03:25:18.087Z,100893.03
2023-05-08T03:27:45.753Z,100885.06
2023-05-08T03:30:13.430Z,100893.53
2023-05-08T03:32:41.432Z,100891.06
2023-05-08T03:35:09.715Z,100897.38
2023-05-08T03:37:36.750Z,100892.16
2023-05-08T03:40:03.859Z,100891.81
2023-05-08T03:42:31.584Z,100898.69
2023-05-08T03:44:58.910Z,100894.63
2023-05-08T03:47:28.624Z,100897.84
2023-05-08T03:49:55.647Z,100900.22
2023-05-08T03:52:22.486Z,100893.78
2023-05-08T03:54:49.097Z,100889.06
2023-05-08T03:57:15.767Z,100898.91
2023-05-08T03:59:49.987Z,100898.41
2023-05-08T04:02:16.526Z,100895.59
2023-05-08T04:04:47.259Z,100896.03
2023-05-08T04:07:20.317Z,100908.91
2023-05-08T04:10:21.622Z,100915.09
2023-05-08T04:13:00.996Z,100912.41
2023-05-08T04:15:31.543Z,100909.19
2023-05-08T04:18:09.844Z,100919.09
2023-05-08T04:20:40.823Z,100922.41
2023-05-08T04:23:09.280Z,100920.16
2023-05-08T04:25:38.969Z,100924.97
2023-05-08T04:28:06.221Z,100923.59
2023-05-08T04:30:33.511Z,100930.56
2023-05-08T04:33:04.022Z,100931.94
2023-05-08T04:35:30.908Z,100934.81
2023-05-08T04:37:59.095Z,100932.56
2023-05-08T04:40:26.130Z,100933.09
2023-05-08T04:42:52.865Z,100938.22
2023-05-08T04:45:19.554Z,100953.72
2023-05-08T04:47:46.270Z,100949.09
2023-05-08T04:50:12.961Z,100953.28
2023-05-08T04:52:39.560Z,100957.13
2023-05-08T04:55:06.934Z,100951.09
2023-05-08T04:57:33.854Z,100956.66
2023-05-08T05:00:00.424Z,100964.88
2023-05-08T05:02:27.083Z,100962.38
2023-05-08T05:04:53.672Z,100959.00
2023-05-08T05:07:20.221Z,100963.31
2023-05-08T05:09:46.792Z,100967.03
2023-05-08T05:12:13.362Z,100970.97
2023-05-08T05:14:39.925Z,100967.72
2023-05-08T05:17:06.526Z,100970.78
2023-05-08T05:19:33.103Z,100966.91
2023-05-08T05:22:00.050Z,100970.56
2023-05-08T05:24:26.603Z,100970.09
2023-05-08T05:26:53.862Z,100977.69
2023-05-08T05:29:20.452Z,100977.25
2023-05-08T05:31:47.023Z,100975.03
2023-05-08T05:34:13.611Z,100971.13
2023-05-08T05:36:40.190Z,100979.81
2023-05-08T05:39:07.004Z,100981.06
2023-05-08T05:41:34.239Z,100976.78
2023-05-08T05:44:00.800Z,100981.56
2023-05-08T05:46:32.473Z,100983.16
2023-05-08T05:48:59.472Z,100987.47
2023-05-08T05:51:27.653Z,100993.72
2023-05-08T05:53:54.262Z,100992.75
2023-05-08T05:56:21.853Z,100992.38
2023-05-08T05:58:48.447Z,100995.66
2023-05-08T06:01:17.650Z,100994.56
2023-05-08T06:03:44.500Z,100984.56
2023-05-08T06:06:11.344Z,100990.53
2023-05-08T06:08:37.879Z,100991.75
2023-05-08T06:11:04.502Z,100995.06
2023-05-08T06:13:31.714Z,100995.66
2023-05-08T06:15:58.465Z,100992.38
2023-05-08T06:18:25.189Z,100995.16
2023-05-08T06:20:58.598Z,100991.84
2023-05-08T06:23:25.736Z,100992.34
2023-05-08T06:25:52.678Z,100992.06
2023-05-08T06:28:20.091Z,100996.63
2023-05-08T06:30:46.717Z,100996.34
2023-05-08T06:33:13.355Z,100995.00
2023-05-08T06:35:39.933Z,100994.50
2023-05-08T06:38:06.589Z,100998.50
2023-05-08T06:40:33.169Z,100997.63
2023-05-08T06:42:59.790Z,100999.69
2023-05-08T06:45:26.393Z,100997.69
2023-05-08T06:47:53.086Z,101006.84
2023-05-08T06:50:19.788Z,101006.91
2023-05-08T06:52:46.412Z,101002.03
2023-05-08T06:55:13.102Z,101004.72
2023-05-08T06:57:39.768Z,101012.53
2023-05-08T07:00:07.035Z,101009.75
2023-05-08T07:02:33.650Z,101003.56
2023-05-08T07:05:00.580Z,101010.19
2023-05-08T07:07:27.193Z,101004.25
2023-05-08T07:09:53.788Z,101003.19
2023-05-08T07:12:20.455Z,101004.94
2023-05-08T07:14:47.084Z,101010.38
2023-05-08T07:17:13.692Z,101016.94
2023-05-08T07:19:40.547Z,101010.88
2023-05-08T07:22:07.307Z,101012.31
2023-05-08T07:24:33.991Z,101010.03
2023-05-08T07:27:01.294Z,101007.78
2023-05-08T07:29:27.978Z,101020.06
2023-05-08T07:31:54.647Z,101012.53
2023-05-08T07:34:21.261Z,101010.09
2023-05-08T07:36:48.118Z,101013.66
2023-05-08T07:39:14.713Z,101012.91
2023-05-08T07:41:41.486Z,101008.03
2023-05-08T07:44:08.428Z,101017.00
2023-05-08T07:46:35.162Z,101016.41
2023-05-08T07:49:01.845Z,101020.00
2023-05-08T07:51:28.926Z,101017.59
2023-05-08T07:53:55.701Z,101017.44
2023-05-08T07:56:25.023Z,101018.28
2023-05-08T07:58:51.696Z,101015.72
2023-05-08T08:01:18.484Z,101019.56
2023-05-08T08:03:46.192Z,101014.13
2023-05-08T08:06:13.441Z,101008.25
2023-05-08T08:08:40.780Z,101020.47
2023-05-08T08:11:07.691Z,101013.91
2023-05-08T08:13:34.535Z,101007.59
2023-05-08T08:16:01.484Z,101007.31
2023-05-08T08:18:28.632Z,101001.38
2023-05-08T08:20:55.458Z,101002.06
2023-05-08T08:23:22.277Z,101005.56
2023-05-08T08:25:49.000Z,100999.34
2023-05-08T08:28:15.677Z,101003.31
2023-05-08T08:30:42.280Z,101000.06
2023-05-08T08:33:08.954Z,101002.50
2023-05-08T08:35:35.711Z,101001.88
2023-05-08T08:38:02.453Z,100991.31
2023-05-08T08:40:29.179Z,100990.22
2023-05-08T08:42:55.905Z,100987.13
2023-05-08T08:45:22.568Z,100998.44
2023-05-08T08:47:52.548Z,100999.91
2023-05-08T08:50:20.489Z,100996.66
2023-05-08T08:52:59.745Z,100997.56
2023-05-08T08:55:26.614Z,101002.69
2023-05-08T08:58:06.453Z,101004.72
2023-05-08T09:00:34.331Z,100999.56
2023-05-08T09:03:01.462Z,100994.03
2023-05-08T09:05:28.265Z,100992.97
2023-05-08T09:07:55.695Z,100991.66
2023-05-08T09:10:27.186Z,100996.22
2023-05-08T09:12:54.017Z,100993.19
2023-05-08T09:15:20.944Z,100994.09
2023-05-08T09:17:47.749Z,100984.47
2023-05-08T09:20:16.220Z,100988.09
2023-05-08T09:22:43.629Z,100989.19
2023-05-08T09:25:10.673Z,100988.88
2023-05-08T09:27:37.574Z,100987.00
2023-05-08T09:30:09.496Z,100993.31
2023-05-08T09:32:38.520Z,100971.47
2023-05-08T09:35:07.336Z,100978.25
2023-05-08T09:37:34.181Z,100980.38
2023-05-08T09:40:20.970Z,100979.53
2023-05-08T09:42:49.141Z,100984.81
2023-05-08T09:45:32.906Z,100979.19
2023-05-08T09:47:59.579Z,100970.16
2023-05-08T09:50:26.872Z,100988.53
2023-05-08T09:52:53.562Z,100978.28
2023-05-08T09:55:20.436Z,100976.78
2023-05-08T09:57:53.010Z,100969.97
2023-05-08T10:00:20.425Z,100975.19
2023-05-08T10:03:00.818Z,100970.38
2023-05-08T10:05:31.314Z,100968.16
2023-05-08T10:07:59.372Z,100972.03
2023-05-08T10:10:28.069Z,100964.97
2023-05-08T10:12:56.047Z,100968.13
2023-05-08T10:15:29.900Z,100963.47
2023-05-08T10:18:04.045Z,100950.75
2023-05-08T10:20:31.253Z,100950.31
2023-05-08T10:22:58.780Z,100943.28
2023-05-08T10:25:30.412Z,100948.81
2023-05-08T10:28:25.327Z,100952.72
2023-05-08T10:30:52.151Z,100943.78
2023-05-08T10:33:25.974Z,100942.88
2023-05-08T10:35:53.127Z,100940.50
2023-05-08T10:38:20.510Z,100945.63
2023-05-08T10:40:48.408Z,100938.00
2023-05-08T10:43:16.227Z,100934.66
2023-05-08T10:45:43.497Z,100934.75
2023-05-08T10:48:15.916Z,100947.09
2023-05-08T10:51:03.118Z,100940.81
2023-05-08T10:53:39.515Z,100933.06
2023-05-08T10:56:06.353Z,100935.63
2023-05-08T10:58:34.613Z,100920.91
2023-05-08T11:01:03.692Z,100923.19
2023-05-08T11:03:33.273Z,100924.88
2023-05-08T11:06:01.676Z,100918.53
2023-05-08T11:08:30.977Z,100917.22
2023-05-08T11:11:00.587Z,100911.03
2023-05-08T11:13:35.246Z,100914.63
2023-05-08T11:16:02.833Z,100907.00
2023-05-08T11:18:42.283Z,100915.59
2023-05-08T11:21:20.833Z,100908.47
2023-05-08T11:23:57.021Z,100912.75
2023-05-08T11:26:39.348Z,100900.16
2023-05-08T11:29:17.182Z,100895.34
2023-05-08T11:31:52.600Z,100903.03
2023-05-08T11:34:44.276Z,100911.28
2023-05-08T11:37:19.926Z,100905.31
2023-05-08T11:39:47.651Z,100906.50
2023-05-08T11:42:29.009Z,100895.53
2023-05-08T11:45:09.032Z,100888.63
2023-05-08T11:47:41.939Z,100888.31
2023-05-08T11:50:10.636Z,100897.44
2023-05-08T11:52:39.200Z,100893.56
2023-05-08T11:55:08.073Z,100895.91
2023-05-08T11:57:35.120Z,100892.41
2023-05-08T12:00:09.947Z,100892.88
2023-05-08T12:02:39.056Z,100886.63
2023-05-08T12:05:07.675Z,100893.63
2023-05-08T12:07:44.216Z,100877.47
2023-05-08T12:10:11.123Z,100889.53
2023-05-08T12:12:39.122Z,100886.16
2023-05-08T12:15:08.219Z,100887.69
2023-05-08T12:17:35.764Z,100889.59
2023-05-08T12:20:13.714Z,100884.28
2023-05-08T12:22:41.754Z,100888.53
2023-05-08T12:25:10.527Z,100884.72
2023-05-08T12:27:38.278Z,100882.16
2023-05-08T12:30:10.874Z,100884.28
2023-05-08T12:32:40.141Z,100894.03
2023-05-08T12:35:08.404Z,100886.41
2023-05-08T12:37:35.416Z,100894.88
2023-05-08T12:40:02.803Z,100885.56
2023-05-08T12:42:53.976Z,100886.22
2023-05-08T12:45:25.729Z,100887.44
2023-05-08T12:47:53.566Z,100887.88
2023-05-08T12:50:21.840Z,100892.94
2023-05-08T12:52:51.167Z,100888.06
2023-05-08T12:55:28.572Z,100884.72
2023-05-08T12:58:07.325Z,100888.50
2023-05-08T13:00:47.780Z,100896.78
2023-05-08T13:03:24.292Z,100886.78
2023-05-08T13:05:51.402Z,100891.84
2023-05-08T13:08:18.235Z,100887.97
2023-05-08T13:10:47.997Z,100888.28
2023-05-08T13:13:16.070Z,100882.28
2023-05-08T13:15:43.471Z,100889.34
2023-05-08T13:18:10.550Z,100882.78
2023-05-08T13:20:37.696Z,100891.84
2023-05-08T13:23:05.290Z,100888.25
2023-05-08T13:25:32.740Z,100884.63
2023-05-08T13:28:00.131Z,100884.44
2023-05-08T13:30:26.979Z,100892.41
2023-05-08T13:32:54.238Z,100886.44
2023-05-08T13:35:22.369Z,100889.91
2023-05-08T13:37:49.498Z,100881.00
2023-05-08T13:40:16.698Z,100884.44
2023-05-08T13:42:43.423Z,100885.38
2023-05-08T13:45:14.719Z,100877.06
2023-05-08T13:47:42.724Z,100880.47
2023-05-08T13:50:10.566Z,100888.41
2023-05-08T13:52:37.930Z,100891.78
2023-05-08T13:55:09.515Z,100897.22
2023-05-08T13:57:36.323Z,100889.72
2023-05-08T14:00:06.536Z,100895.75
2023-05-08T14:02:33.350Z,100886.78
2023-05-08T14:05:00.005Z,100882.72
2023-05-08T14:07:26.825Z,100883.97
2023-05-08T14:09:54.279Z,100899.25
2023-05-08T14:12:20.948Z,100892.88
2023-05-08T14:14:47.597Z,100889.59
2023-05-08T14:17:14.211Z,100885.63
2023-05-08T14:19:40.889Z,100881.78
2023-05-08T14:22:07.598Z,100883.66
2023-05-08T14:24:34.217Z,100893.53
2023-05-08T14:27:05.834Z,100897.34
2023-05-08T14:29:33.596Z,100900.75
2023-05-08T14:32:00.411Z,100902.34
2023-05-08T14:34:27.142Z,100905.09
2023-05-08T14:36:53.858Z,100898.47
2023-05-08T14:39:20.679Z,100906.13
2023-05-08T14:42:05.208Z,100898.03
2023-05-08T14:44:34.257Z,100904.91
2023-05-08T14:47:00.913Z,100901.03
2023-05-08T14:49:36.779Z,100894.41
2023-05-08T14:52:05.739Z,100891.63
2023-05-08T14:54:32.931Z,100896.38
2023-05-08T14:56:59.845Z,100894.03
2023-05-08T14:59:26.444Z,100891.63
2023-05-08T15:01:53.277Z,100897.03
2023-05-08T15:04:19.988Z,100892.97
2023-05-08T15:06:46.899Z,100898.41
2023-05-08T15:09:13.588Z,100892.00
2023-05-08T15:11:40.218Z,100901.44
2023-05-08T15:14:07.026Z,100895.34
2023-05-08T15:16:33.656Z,100897.44
2023-05-08T15:19:00.445Z,100903.88
2023-05-08T15:21:27.512Z,100899.31
2023-05-08T15:23:55.306Z,100891.50
2023-05-08T15:26:22.978Z,100896.25
2023-05-08T15:28:49.895Z,100893.31
2023-05-08T15:31:17.309Z,100894.97
2023-05-08T15:33:45.193Z,100891.34
2023-05-08T15:36:17.940Z,100902.97
2023-05-08T15:38:44.544Z,100881.88
2023-05-08T15:41:15.089Z,100889.69
2023-05-08T15:43:42.549Z,100896.94
2023-05-08T15:46:09.655Z,100888.03
2023-05-08T15:48:36.324Z,100891.53
2023-05-08T15:51:02.991Z,100895.94
2023-05-08T15:53:29.689Z,100893.53
2023-05-08T15:55:57.135Z,100896.66
2023-05-08T15:58:24.394Z,100890.38
2023-05-08T16:00:51.100Z,100886.31
2023-05-08T16:03:18.040Z,100890.66
2023-05-08T16:05:44.865Z,100882.66
2023-05-08T16:08:12.972Z,100891.59
2023-05-08T16:10:40.890Z,100887.81
2023-05-08T16:13:08.164Z,100885.66
2023-05-08T16:15:35.113Z,100891.09
2023-05-08T16:18:02.012Z,100893.81
2023-05-08T16:20:28.904Z,100886.50
2023-05-08T16:22:55.968Z,100893.38
2023-05-08T16:25:22.884Z,100898.13
2023-05-08T16:27:50.338Z,100901.66
2023-05-08T16:30:17.884Z,100902.53
2023-05-08T16:32:47.405Z,100904.69
2023-05-08T16:35:15.062Z,100914.81
2023-05-08T16:37:42.137Z,100908.75
2023-05-08T16:40:10.039Z,100915.72
2023-05-08T16:42:37.083Z,100924.97
2023-05-08T16:45:04.948Z,100924.19
2023-05-08T16:47:32.105Z,100929.56
2023-05-08T16:49:59.311Z,100939.00
2023-05-08T16:52:26.059Z,100941.19
2023-05-08T16:54:52.928Z,100948.78
2023-05-08T16:57:21.854Z,100952.38
2023-05-08T16:59:48.453Z,100948.78
2023-05-08T17:02:18.916Z,100965.41
2023-05-08T17:04:49.312Z,100974.03
2023-05-08T17:07:16.482Z,100971.97
2023-05-08T17:09:43.190Z,100982.00
2023-05-08T17:12:10.272Z,100990.59
2023-05-08T17:14:39.405Z,100997.06
2023-05-08T17:17:06.611Z,100999.75
2023-05-08T17:19:34.280Z,101002.94
2023-05-08T17:22:00.946Z,101009.34
2023-05-08T17:24:29.629Z,101004.31
2023-05-08T17:26:56.349Z,101012.13
2023-05-08T17:29:24.505Z,101033.38
2023-05-08T17:31:51.152Z,101034.66
2023-05-08T17:34:17.807Z,101043.75
2023-05-08T17:36:44.451Z,101044.56
2023-05-08T17:39:11.621Z,101047.63
2023-05-08T17:41:38.208Z,101047.78
2023-05-08T17:44:05.089Z,101057.78
2023-05-08T17:46:31.818Z,101064.88
2023-05-08T17:48:58.472Z,101065.81
2023-05-08T17:51:25.039Z,101080.19
2023-05-08T17:53:53.070Z,101084.31
2023-05-08T17:56:21.330Z,101080.97
2023-05-08T17:58:47.909Z,101088.09
2023-05-08T18:01:14.824Z,101101.38
2023-05-08T18:03:41.890Z,101103.41
2023-05-08T18:06:08.575Z,101108.31
2023-05-08T18:08:35.251Z,101120.59
2023-05-08T18:11:02.004Z,101115.53
2023-05-08T18:13:28.638Z,101113.06
2023-05-08T18:15:55.268Z,101128.09
2023-05-08T18:18:21.880Z,101134.28
2023-05-08T18:20:48.630Z,101135.75
2023-05-08T18:23:15.300Z,101140.81
2023-05-08T18:25:41.966Z,101150.09
2023-05-08T18:28:08.595Z,101150.97
2023-05-08T18:30:36.513Z,101155.69
2023-05-08T18:33:03.395Z,101168.25
2023-05-08T18:35:30.044Z,101164.84
2023-05-08T18:37:56.656Z,101163.84
2023-05-08T18:40:23.240Z,101163.41
2023-05-08T18:42:49.890Z,101165.25
2023-05-08T18:45:16.691Z,101167.94
2023-05-08T18:47:43.564Z,101168.22
2023-05-08T18:50:10.663Z,101173.47
2023-05-08T18:52:37.392Z,101180.03
2023-05-08T18:55:04.218Z,101180.28
2023-05-08T18:57:31.058Z,101187.09
2023-05-08T18:59:57.696Z,101187.91
2023-05-08T19:02:24.876Z,101195.97
2023-05-08T19:04:51.577Z,101198.75
2023-05-08T19:07:18.393Z,101202.72
2023-05-08T19:09:44.972Z,101211.94
2023-05-08T19:12:11.906Z,101212.03
2023-05-08T19:14:38.583Z,101220.53
2023-05-08T19:17:05.176Z,101214.09
2023-05-08T19:19:31.741Z,101216.72
2023-05-08T19:21:58.474Z,101219.22
2023-05-08T19:24:29.717Z,101216.31
2023-05-08T19:26:59.860Z,101221.72
2023-05-08T19:29:26.536Z,101221.06
2023-05-08T19:31:53.114Z,101222.41
2023-05-08T19:34:19.798Z,101225.28
2023-05-08T19:36:46.377Z,101221.50
2023-05-08T19:39:13.682Z,101237.22
2023-05-08T19:41:40.485Z,101233.81
2023-05-08T19:44:07.117Z,101240.00
2023-05-08T19:46:33.752Z,101234.00
2023-05-08T19:49:00.371Z,101241.47
2023-05-08T19:51:27.010Z,101239.13
2023-05-08T19:53:53.640Z,101241.97
2023-05-08T19:56:21.115Z,101233.50
2023-05-08T19:58:47.698Z,101242.22
2023-05-08T20:01:14.263Z,101235.00
2023-05-08T20:03:41.028Z,101235.72
2023-05-08T20:06:07.676Z,101250.56
2023-05-08T20:08:34.303Z,101247.50
2023-05-08T20:11:03.958Z,101241.50
2023-05-08T20:13:30.608Z,101250.81
2023-05-08T20:15:58.652Z,101245.19
2023-05-08T20:18:25.645Z,101240.50
2023-05-08T20:20:52.206Z,101241.72
2023-05-08T20:23:18.812Z,101238.03
2023-05-08T20:25:46.503Z,101236.09
2023-05-08T20:28:18.727Z,101235.50
2023-05-08T20:30:45.349Z,101244.91
2023-05-08T20:33:12.065Z,101239.16
2023-05-08T20:35:38.827Z,101243.19
2023-05-08T20:38:05.460Z,101245.16
2023-05-08T20:40:32.135Z,101238.78
2023-05-08T20:42:58.824Z,101241.47
2023-05-08T20:45:25.514Z,101235.94
2023-05-08T20:47:52.325Z,101235.84
2023-05-08T20:50:19.327Z,101234.34
2023-05-08T20:52:45.916Z,101242.66
2023-05-08T20:55:12.723Z,101236.44
2023-05-08T20:57:39.496Z,101236.81
2023-05-08T21:00:07.245Z,101235.91
2023-05-08T21:02:34.033Z,101232.69
2023-05-08T21:05:00.910Z,101236.38
2023-05-08T21:07:27.611Z,101231.56
2023-05-08T21:09:54.144Z,101231.19
2023-05-08T21:12:20.938Z,101228.00
2023-05-08T21:14:47.525Z,101224.91
2023-05-08T21:17:14.142Z,101232.38
2023-05-08T21:19:40.718Z,101230.50
2023-05-08T21:22:09.307Z,101230.75
2023-05-08T21:24:36.587Z,101226.81
2023-05-08T21:27:03.254Z,101229.63
2023-05-08T21:29:30.094Z,101225.66
2023-05-08T21:31:56.726Z,101229.31
2023-05-08T21:34:23.301Z,101220.28
2023-05-08T21:36:49.855Z,101230.28
2023-05-08T21:39:16.431Z,101219.84
2023-05-08T21:41:43.765Z,101218.34
2023-05-08T21:44:13.221Z,101213.97
2023-05-08T21:46:39.888Z,101221.31
2023-05-08T21:49:06.597Z,101213.13
2023-05-08T21:51:33.267Z,101219.34
2023-05-08T21:54:00.302Z,101210.63
2023-05-08T21:56:27.125Z,101207.22
2023-05-08T21:58:53.807Z,101209.03
2023-05-08T22:01:20.435Z,101204.63
2023-05-08T22:03:47.152Z,101204.22
2023-05-08T22:06:13.843Z,101214.69
2023-05-08T22:08:40.706Z,101213.09
2023-05-08T22:11:07.315Z,101209.66
2023-05-08T22:13:33.925Z,101208.06
2023-05-08T22:16:00.577Z,101211.59
2023-05-08T22:18:27.165Z,101214.38
2023-05-08T22:20:54.999Z,101206.47
2023-05-08T22:23:21.658Z,101217.31
2023-05-08T22:25:48.214Z,101209.59
2023-05-08T22:28:14.873Z,101207.66
2023-05-08T22:30:41.545Z,101192.69
2023-05-08T22:33:08.190Z,101198.41
2023-05-08T22:35:34.834Z,101202.09
2023-05-08T22:38:01.772Z,101201.31
2023-05-08T22:40:28.763Z,101201.31
2023-05-08T22:42:56.239Z,101208.75
2023-05-08T22:45:23.377Z,101207.91
2023-05-08T22:47:50.199Z,101200.81
2023-05-08T22:50:17.399Z,101197.59
2023-05-08T22:52:44.152Z,101197.06
2023-05-08T22:55:10.983Z,101202.78
2023-05-08T22:57:37.552Z,101196.75
2023-05-08T23:00:06.170Z,101200.41
2023-05-08T23:02:33.903Z,101200.84
2023-05-08T23:05:01.934Z,101205.50
2023-05-08T23:07:29.126Z,101208.19
2023-05-08T23:09:55.716Z,101205.69
2023-05-08T23:12:22.301Z,101204.09
2023-05-08T23:14:48.917Z,101198.84
2023-05-08T23:17:15.505Z,101193.13
2023-05-08T23:19:42.610Z,101193.91
2023-05-08T23:22:10.032Z,101196.81
2023-05-08T23:24:39.379Z,101200.69
2023-05-08T23:27:06.121Z,101193.47
2023-05-08T23:29:32.760Z,101196.69
2023-05-08T23:32:00.060Z,101196.94
2023-05-08T23:34:26.636Z,101196.94
2023-05-08T23:36:53.418Z,101193.47
2023-05-08T23:39:20.010Z,101193.81
2023-05-08T23:41:46.630Z,101184.47
2023-05-08T23:44:13.193Z,101190.81
2023-05-08T23:46:39.813Z,101185.53
2023-05-08T23:49:06.783Z,101181.13
2023-05-08T23:51:33.676Z,101170.41
2023-05-08T23:54:00.372Z,101172.41
2023-05-08T23:56:27.024Z,101175.31
2023-05-08T23:58:53.655Z,101178.97
